Time;durP1;ratioP1;P1;durP2;ratioP2;P2;SDS_P1;SDS_P2;PMS_P1;PMS_P2;Temp;Humidity;BMP_temperature;BMP_pressure;BME280_temperature;BME280_humidity;BME280_pressure;Samples;Min_cycle;Max_cycle;Signal;HPM_P1;HPM_P2
2022/01/19 00:01:51;;;;;;;80.30;27.58;;;5.60;99.90;;;;;;4788265;29;20104;-67
2022/01/19 00:04:17;;;;;;;72.20;27.02;;;5.50;99.90;;;;;;4788393;29;20055;-67
2022/01/19 00:06:43;;;;;;;83.25;28.67;;;5.50;99.90;;;;;;4788069;29;20047;-67
2022/01/19 00:09:08;;;;;;;70.43;25.30;;;5.50;99.90;;;;;;4788005;29;20059;-67
2022/01/19 00:11:34;;;;;;;69.63;26.13;;;5.80;99.90;;;;;;4788608;29;20050;-67
2022/01/19 00:14:00;;;;;;;69.88;24.10;;;5.50;99.90;;;;;;4787241;29;20051;-67
2022/01/19 00:16:26;;;;;;;63.60;23.58;;;5.50;99.90;;;;;;4787869;29;20053;-67
2022/01/19 00:18:52;;;;;;;68.25;24.10;;;5.40;99.90;;;;;;4784916;29;20047;-67
2022/01/19 00:21:18;;;;;;;70.75;25.05;;;5.40;99.90;;;;;;4789030;29;20130;-63
2022/01/19 00:23:43;;;;;;;62.97;22.77;;;5.40;99.90;;;;;;4788240;29;20149;-63
2022/01/19 00:26:09;;;;;;;60.78;23.05;;;5.40;99.90;;;;;;4789164;29;20074;-63
2022/01/19 00:28:35;;;;;;;70.25;23.92;;;5.30;99.90;;;;;;4789253;29;20400;-63
2022/01/19 00:31:01;;;;;;;74.82;23.50;;;5.30;99.90;;;;;;4788375;29;20043;-63
2022/01/19 00:33:26;;;;;;;61.50;23.83;;;5.30;99.90;;;;;;4786011;29;20059;-63
2022/01/19 00:35:52;;;;;;;66.38;24.05;;;5.20;99.90;;;;;;4789174;29;20046;-63
2022/01/19 00:38:18;;;;;;;76.10;25.00;;;5.20;99.90;;;;;;4788198;29;20516;-63
2022/01/19 00:40:45;;;;;;;85.93;26.38;;;5.20;99.90;;;;;;4788144;29;20126;-63
2022/01/19 00:43:11;;;;;;;73.93;25.30;;;5.10;99.90;;;;;;4787010;29;20051;-63
2022/01/19 00:45:37;;;;;;;73.93;24.88;;;5.10;99.90;;;;;;4788159;29;20592;-63
2022/01/19 00:48:03;;;;;;;77.20;26.38;;;5.10;99.90;;;;;;4784658;29;20141;-63
2022/01/19 00:50:30;;;;;;;97.38;28.52;;;5.10;99.90;;;;;;4786808;29;20047;-63
2022/01/19 00:52:56;;;;;;;59.33;24.15;;;5.10;99.90;;;;;;4786205;29;20568;-63
2022/01/19 00:55:25;;;;;;;83.65;27.27;;;5.00;99.90;;;;;;4787293;29;20043;-63
2022/01/19 00:57:51;;;;;;;91.45;29.27;;;5.00;99.90;;;;;;4786170;29;20039;-63
2022/01/19 01:00:21;;;;;;;89.05;27.70;;;5.00;99.90;;;;;;4787045;29;20488;-63
2022/01/19 01:02:46;;;;;;;86.00;28.17;;;5.00;99.90;;;;;;4786316;29;20118;-63
2022/01/19 01:05:13;;;;;;;86.93;27.90;;;5.00;99.90;;;;;;4787724;29;20567;-63
2022/01/19 01:07:40;;;;;;;90.95;27.85;;;5.00;99.90;;;;;;4787592;29;20039;-63
2022/01/19 01:10:13;;;;;;;77.65;26.85;;;5.00;99.90;;;;;;4787343;29;20055;-63
2022/01/19 01:12:51;;;;;;;77.28;24.65;;;5.10;99.90;;;;;;4781223;29;20058;-63
2022/01/19 01:20:36;;;;;;;79.45;27.15;;;4.90;99.90;;;;;;4785269;29;20051;-63
2022/01/19 01:23:05;;;;;;;97.72;28.85;;;4.90;99.90;;;;;;4793013;29;20047;-63
2022/01/19 01:25:31;;;;;;;81.13;26.35;;;4.90;99.90;;;;;;4788581;29;20047;-63
2022/01/19 01:27:57;;;;;;;116.72;30.30;;;4.90;99.90;;;;;;4787396;29;20412;-63
2022/01/19 01:30:23;;;;;;;115.85;30.00;;;4.90;99.90;;;;;;4786465;29;20468;-63
2022/01/19 01:32:48;;;;;;;95.60;29.15;;;4.90;99.90;;;;;;4786318;29;20036;-63
2022/01/19 01:35:14;;;;;;;111.50;31.05;;;4.90;99.90;;;;;;4787358;29;20046;-63
2022/01/19 01:37:40;;;;;;;62.03;25.15;;;4.90;99.90;;;;;;4786916;29;20055;-63
2022/01/19 01:40:09;;;;;;;75.75;28.08;;;4.90;99.90;;;;;;4787024;29;20035;-63
2022/01/19 01:42:35;;;;;;;66.22;26.10;;;4.90;99.90;;;;;;4785295;29;20176;-63
2022/01/19 01:45:02;;;;;;;82.32;27.95;;;4.90;99.90;;;;;;4784476;29;20115;-63
2022/01/19 01:47:30;;;;;;;68.30;26.77;;;4.90;99.90;;;;;;4785399;29;20512;-63
2022/01/19 01:55:16;;;;;;;62.50;23.50;;;4.90;99.90;;;;;;4786192;29;20468;-63
2022/01/19 01:57:42;;;;;;;102.38;25.48;;;4.80;99.90;;;;;;4785805;29;20130;-63
2022/01/19 02:00:11;;;;;;;133.27;26.00;;;4.80;99.90;;;;;;4785808;29;20053;-63
2022/01/19 02:02:37;;;;;;;75.32;23.70;;;4.70;99.90;;;;;;4786084;29;20171;-63
2022/01/19 02:05:03;;;;;;;76.75;25.52;;;4.90;99.90;;;;;;4784812;29;20092;-63
2022/01/19 02:10:40;;;;;;;78.70;26.23;;;4.60;99.90;;;;;;4786815;29;20447;-63
2022/01/19 02:21:39;;;;;;;77.90;27.63;;;4.50;99.90;;;;;;4785356;29;20123;-63
2022/01/19 02:24:09;;;;;;;111.88;29.45;;;4.60;99.90;;;;;;4786652;29;20044;-63
2022/01/19 02:40:24;;;;;;;68.95;25.88;;;4.50;99.90;;;;;;4783672;29;20108;-63
2022/01/19 02:50:35;;;;;;;63.95;25.30;;;4.40;99.90;;;;;;4785048;29;20044;-63
2022/01/19 02:53:01;;;;;;;95.38;25.92;;;4.40;99.90;;;;;;4780458;29;20497;-63
2022/01/19 02:55:28;;;;;;;95.85;25.38;;;4.30;99.90;;;;;;4786296;29;20122;-63
2022/01/19 02:57:54;;;;;;;128.80;28.73;;;4.40;99.90;;;;;;4783856;29;20047;-63
2022/01/19 03:08:50;;;;;;;97.13;25.30;;;4.30;99.90;;;;;;4785327;29;20074;-63
2022/01/19 03:11:19;;;;;;;58.55;23.73;;;4.20;99.90;;;;;;4784380;29;20040;-63
2022/01/19 03:13:47;;;;;;;122.00;25.40;;;4.20;99.90;;;;;;4784970;29;20082;-63
2022/01/19 03:16:13;;;;;;;134.13;26.67;;;4.20;99.90;;;;;;4784184;29;20369;-63
2022/01/19 03:18:39;;;;;;;70.85;24.98;;;4.80;99.90;;;;;;4784218;29;20055;-63
2022/01/19 03:21:06;;;;;;;54.47;23.13;;;4.10;99.90;;;;;;4785182;29;20058;-63
2022/01/19 03:23:32;;;;;;;53.60;23.23;;;4.10;99.90;;;;;;4783431;29;20050;-63
2022/01/19 03:25:58;;;;;;;88.55;24.83;;;4.10;99.90;;;;;;4784696;29;20146;-63
2022/01/19 03:28:24;;;;;;;51.90;22.67;;;4.10;99.90;;;;;;4789297;29;20118;-63
2022/01/19 03:30:50;;;;;;;73.90;23.63;;;4.00;99.90;;;;;;4788339;29;20541;-63
2022/01/19 03:33:16;;;;;;;135.27;27.38;;;4.00;99.90;;;;;;4789409;29;20138;-63
2022/01/19 03:35:43;;;;;;;78.72;25.52;;;4.00;99.90;;;;;;4790238;29;20046;-63
2022/01/19 03:38:10;;;;;;;60.53;23.00;;;4.00;99.90;;;;;;4789510;29;20104;-63
2022/01/19 03:40:36;;;;;;;49.10;22.05;;;4.00;99.90;;;;;;4790214;29;20104;-63
2022/01/19 03:43:05;;;;;;;79.45;24.02;;;4.00;99.90;;;;;;4789335;29;20047;-63
2022/01/19 03:45:34;;;;;;;65.72;23.48;;;3.90;99.90;;;;;;4788366;29;20068;-63
2022/01/19 03:50:41;;;;;;;65.00;22.25;;;3.90;99.90;;;;;;4789723;29;20047;-63
2022/01/19 03:53:07;;;;;;;57.42;23.70;;;3.80;99.90;;;;;;4788177;29;20566;-63
2022/01/19 03:55:33;;;;;;;68.70;23.30;;;3.70;99.90;;;;;;4789750;29;20068;-63
2022/01/19 03:57:58;;;;;;;65.95;23.10;;;3.70;99.90;;;;;;4789757;29;20047;-63
2022/01/19 04:00:24;;;;;;;81.57;23.58;;;3.70;99.90;;;;;;4789945;29;20059;-63
2022/01/19 04:02:50;;;;;;;44.55;20.95;;;3.70;99.90;;;;;;4788994;29;20505;-63
2022/01/19 04:05:26;;;;;;;43.95;20.50;;;3.60;99.90;;;;;;4787949;29;20509;-63
2022/01/19 04:07:52;;;;;;;;;;;3.60;99.90;;;;;;4789484;29;20070;-63
2022/01/19 04:10:18;;;;;;;40.93;19.70;;;3.50;99.90;;;;;;4788230;29;19921;-63
2022/01/19 04:12:54;;;;;;;39.90;20.83;;;3.50;99.90;;;;;;4788734;29;20039;-63
2022/01/19 04:15:20;;;;;;;47.45;21.63;;;3.50;99.90;;;;;;4788850;29;20059;-63
2022/01/19 04:17:52;;;;;;;43.40;21.15;;;3.60;99.90;;;;;;4788037;29;20039;-63
2022/01/19 04:20:19;;;;;;;64.45;22.88;;;3.40;99.90;;;;;;4788051;29;20130;-63
2022/01/19 04:22:45;;;;;;;48.60;20.85;;;3.40;99.90;;;;;;4788168;29;20050;-63
2022/01/19 04:25:12;;;;;;;59.75;22.35;;;3.40;99.90;;;;;;4788506;29;20047;-63
2022/01/19 04:27:41;;;;;;;53.95;23.15;;;3.30;99.90;;;;;;4786791;29;20066;-63
2022/01/19 04:30:12;;;;;;;40.47;21.30;;;3.30;99.90;;;;;;4787398;29;20051;-63
2022/01/19 04:35:15;;;;;;;47.28;20.75;;;3.30;99.90;;;;;;4786527;29;20079;-63
2022/01/19 04:46:11;;;;;;;;;;;3.20;99.90;;;;;;4787741;29;20053;-63
2022/01/19 05:15:35;;;;;;;40.05;21.65;;;3.30;99.90;;;;;;4788145;29;20058;-63
2022/01/19 05:18:02;;;;;;;41.65;22.13;;;3.30;99.90;;;;;;4781429;29;20054;-63
2022/01/19 05:20:28;;;;;;;41.63;21.38;;;3.30;99.90;;;;;;4786592;29;20076;-63
2022/01/19 05:22:54;;;;;;;45.88;22.77;;;3.30;99.90;;;;;;4788099;29;20047;-63
2022/01/19 05:25:20;;;;;;;47.58;23.17;;;3.30;99.90;;;;;;4788068;29;20056;-63
2022/01/19 05:27:45;;;;;;;50.90;23.52;;;3.30;99.90;;;;;;4787769;29;20043;-63
2022/01/19 05:30:12;;;;;;;40.92;21.00;;;3.40;99.90;;;;;;4787021;29;20078;-63
2022/01/19 05:32:38;;;;;;;44.28;21.92;;;3.40;99.90;;;;;;4785455;29;20047;-63
2022/01/19 05:35:04;;;;;;;50.80;23.98;;;4.50;99.90;;;;;;4787134;29;20451;-63
2022/01/19 05:37:36;;;;;;;43.28;22.58;;;3.50;99.90;;;;;;4787991;29;20062;-63
2022/01/19 05:40:03;;;;;;;44.55;22.75;;;3.40;99.90;;;;;;4788011;29;20045;-63
2022/01/19 05:42:29;;;;;;;40.67;22.42;;;3.40;99.90;;;;;;4786375;30;20062;-63
2022/01/19 05:44:54;;;;;;;42.45;22.00;;;3.40;99.90;;;;;;4787770;29;20051;-63
2022/01/19 05:47:20;;;;;;;43.92;21.50;;;3.50;99.90;;;;;;4786194;29;20058;-63
2022/01/19 05:49:46;;;;;;;46.97;23.27;;;3.50;99.90;;;;;;4786640;29;20058;-63
2022/01/19 05:52:12;;;;;;;48.17;23.55;;;3.50;99.90;;;;;;4784885;29;20051;-63
2022/01/19 05:54:39;;;;;;;51.60;24.50;;;3.50;99.90;;;;;;4786696;29;20117;-63
2022/01/19 05:57:04;;;;;;;41.00;22.35;;;3.50;99.90;;;;;;4787981;29;20394;-63
2022/01/19 05:59:30;;;;;;;47.28;24.73;;;3.50;99.90;;;;;;4787070;29;20050;-63
2022/01/19 06:01:56;;;;;;;47.05;24.40;;;3.60;99.90;;;;;;4786926;29;20047;-63
2022/01/19 06:04:23;;;;;;;52.03;25.90;;;3.60;99.90;;;;;;4785756;29;20490;-63
2022/01/19 06:06:56;;;;;;;45.03;24.52;;;3.60;99.90;;;;;;4788068;29;20098;-63
2022/01/19 06:12:10;;;;;;;40.03;21.83;;;3.80;99.90;;;;;;4785117;29;20058;-63
2022/01/19 06:14:37;;;;;;;49.70;24.15;;;3.60;99.90;;;;;;4785457;29;20129;-63
2022/01/19 06:17:06;;;;;;;42.38;22.65;;;3.60;99.90;;;;;;4786999;29;20094;-63
2022/01/19 06:19:31;;;;;;;46.00;23.45;;;3.70;99.90;;;;;;4784430;29;20043;-63
2022/01/19 06:21:57;;;;;;;43.00;21.60;;;3.70;99.90;;;;;;4785352;29;20042;-63
2022/01/19 06:24:23;;;;;;;38.50;20.85;;;3.70;99.90;;;;;;4785760;29;20051;-63
2022/01/19 06:26:49;;;;;;;46.13;23.02;;;3.80;99.90;;;;;;4787068;29;20065;-63
2022/01/19 06:29:15;;;;;;;45.35;23.25;;;3.60;99.90;;;;;;4786882;29;20544;-63
2022/01/19 06:31:41;;;;;;;44.47;23.55;;;3.60;99.90;;;;;;4786414;29;20075;-63
2022/01/19 06:34:07;;;;;;;44.90;23.85;;;3.90;99.90;;;;;;4787024;29;20082;-63
2022/01/19 06:36:33;;;;;;;42.38;23.15;;;3.60;99.90;;;;;;4785266;29;20071;-63
2022/01/19 06:38:59;;;;;;;47.17;24.02;;;3.70;99.90;;;;;;4786452;29;20459;-63
2022/01/19 06:41:25;;;;;;;39.05;21.40;;;3.70;99.90;;;;;;4786973;29;20130;-63
2022/01/19 06:43:52;;;;;;;37.42;21.33;;;3.60;99.90;;;;;;4784849;29;20401;-63
2022/01/19 06:46:18;;;;;;;41.45;22.70;;;3.60;99.90;;;;;;4770291;29;20039;-63
2022/01/19 06:48:44;;;;;;;44.15;22.50;;;3.60;99.90;;;;;;4786645;29;20055;-64
2022/01/19 06:51:10;;;;;;;41.95;21.88;;;3.50;99.90;;;;;;4784206;29;20039;-63
2022/01/19 06:53:36;;;;;;;43.75;23.42;;;3.60;99.90;;;;;;4782022;29;20058;-63
2022/01/19 06:56:01;;;;;;;40.33;22.67;;;3.60;99.90;;;;;;4785757;29;20051;-63
2022/01/19 06:58:28;;;;;;;44.60;24.10;;;3.60;99.90;;;;;;4782164;29;20039;-63
2022/01/19 07:00:55;;;;;;;42.92;22.50;;;3.60;99.90;;;;;;4766705;30;20039;-63
2022/01/19 07:03:21;;;;;;;41.72;22.08;;;3.90;99.90;;;;;;4785889;29;20448;-64
2022/01/19 07:05:47;;;;;;;45.40;23.00;;;3.60;99.90;;;;;;4787149;29;20051;-63
2022/01/19 07:08:13;;;;;;;39.63;21.58;;;3.60;99.90;;;;;;4784920;29;20055;-63
2022/01/19 07:10:39;;;;;;;43.05;22.27;;;3.60;99.90;;;;;;4787029;29;20044;-63
2022/01/19 07:13:06;;;;;;;45.28;24.40;;;3.60;99.90;;;;;;4784559;30;20453;-63
2022/01/19 07:15:31;;;;;;;40.70;22.25;;;3.50;99.90;;;;;;4784308;29;20056;-63
2022/01/19 07:17:57;;;;;;;42.58;23.42;;;3.60;99.90;;;;;;4786382;29;20058;-63
2022/01/19 07:20:23;;;;;;;49.97;24.55;;;3.60;99.90;;;;;;4785669;29;20040;-63
2022/01/19 07:22:49;;;;;;;40.53;21.25;;;3.50;99.90;;;;;;4786465;29;20105;-63
2022/01/19 07:25:16;;;;;;;47.17;23.33;;;3.50;99.90;;;;;;4785692;29;20079;-63
2022/01/19 07:27:42;;;;;;;49.83;24.52;;;3.50;99.90;;;;;;4785854;29;20045;-63
2022/01/19 07:30:09;;;;;;;49.88;24.77;;;3.50;99.90;;;;;;4786452;29;20051;-63
2022/01/19 07:32:35;;;;;;;42.10;22.80;;;3.60;99.90;;;;;;4786540;29;20054;-63
2022/01/19 07:35:06;;;;;;;46.03;23.27;;;3.60;99.90;;;;;;4786382;29;20048;-63
2022/01/19 07:37:32;;;;;;;45.50;23.52;;;3.60;99.90;;;;;;4785037;29;20058;-63
2022/01/19 07:39:58;;;;;;;44.95;22.45;;;3.60;99.90;;;;;;4786262;29;20081;-63
2022/01/19 07:42:25;;;;;;;45.08;22.08;;;3.60;99.90;;;;;;4785015;29;20402;-63
2022/01/19 07:44:53;;;;;;;45.67;23.67;;;3.60;99.90;;;;;;4786681;29;20048;-63
2022/01/19 07:47:19;;;;;;;51.83;25.05;;;3.70;99.90;;;;;;4783125;29;20551;-65
2022/01/19 07:49:45;;;;;;;51.08;24.02;;;3.60;99.90;;;;;;4785099;29;20051;-64
2022/01/19 07:52:11;;;;;;;41.10;22.15;;;3.70;99.90;;;;;;4783590;29;20565;-65
2022/01/19 07:54:36;;;;;;;48.35;21.92;;;3.70;99.90;;;;;;4784773;29;20055;-65
2022/01/19 07:57:03;;;;;;;43.50;21.80;;;3.80;99.90;;;;;;4770259;30;20047;-65
2022/01/19 07:59:28;;;;;;;40.75;22.42;;;3.70;99.90;;;;;;4785148;30;20046;-65
2022/01/19 08:01:56;;;;;;;43.88;22.92;;;3.80;99.90;;;;;;4784735;29;20035;-65
2022/01/19 08:04:22;;;;;;;39.15;22.52;;;3.70;99.90;;;;;;4785376;29;20062;-65
2022/01/19 08:06:53;;;;;;;45.53;23.35;;;3.70;99.90;;;;;;4764134;30;20076;-65
2022/01/19 08:09:22;;;;;;;45.05;23.00;;;3.70;99.90;;;;;;4783471;29;20063;-65
2022/01/19 08:11:48;;;;;;;45.88;23.83;;;3.70;99.90;;;;;;4784856;29;20098;-65
2022/01/19 08:14:14;;;;;;;50.03;24.08;;;3.70;99.90;;;;;;4786703;29;20082;-65
2022/01/19 08:16:40;;;;;;;47.30;22.67;;;3.70;99.90;;;;;;4785757;29;20471;-65
2022/01/19 08:19:05;;;;;;;47.92;23.70;;;3.80;99.90;;;;;;4789140;29;20126;-65
2022/01/19 08:21:31;;;;;;;40.67;21.50;;;3.80;99.90;;;;;;4787913;29;20937;-65
2022/01/19 08:23:57;;;;;;;42.80;23.33;;;3.80;99.90;;;;;;4789307;29;20054;-65
2022/01/19 08:26:22;;;;;;;44.05;23.10;;;3.90;99.90;;;;;;4788230;29;20055;-65
2022/01/19 08:28:48;;;;;;;39.13;21.25;;;3.90;99.90;;;;;;4788112;30;20488;-65
2022/01/19 08:31:14;;;;;;;43.42;23.75;;;3.90;99.90;;;;;;4788999;29;20047;-65
2022/01/19 08:33:40;;;;;;;45.13;23.02;;;3.90;99.90;;;;;;4787775;29;20126;-65
2022/01/19 08:36:06;;;;;;;43.30;22.35;;;3.90;99.90;;;;;;4789001;29;20090;-65
2022/01/19 08:38:33;;;;;;;41.58;22.10;;;4.00;99.90;;;;;;4788289;29;20051;-65
2022/01/19 08:40:58;;;;;;;43.00;23.15;;;4.00;99.90;;;;;;4784827;29;20057;-65
2022/01/19 08:43:24;;;;;;;45.35;24.00;;;4.10;99.90;;;;;;4787159;29;20130;-65
2022/01/19 08:45:51;;;;;;;46.03;23.63;;;4.00;99.90;;;;;;4787857;29;20051;-65
2022/01/19 08:48:18;;;;;;;48.92;24.38;;;4.00;99.90;;;;;;4787802;29;20089;-65
2022/01/19 08:50:45;;;;;;;49.65;24.30;;;4.10;99.90;;;;;;4787895;29;20485;-65
2022/01/19 08:53:10;;;;;;;39.67;22.30;;;4.10;99.90;;;;;;4787124;29;20051;-65
2022/01/19 08:55:36;;;;;;;44.95;23.85;;;4.10;99.90;;;;;;4787690;29;20055;-65
2022/01/19 08:58:03;;;;;;;43.65;23.25;;;4.20;99.90;;;;;;4787808;29;20039;-65
2022/01/19 09:00:29;;;;;;;43.20;22.38;;;4.20;99.90;;;;;;4788783;29;20055;-65
2022/01/19 09:02:55;;;;;;;38.50;23.75;;;4.20;99.90;;;;;;4787085;29;20058;-65
2022/01/19 09:05:21;;;;;;;43.40;23.15;;;4.30;99.90;;;;;;4787624;29;20515;-65
2022/01/19 09:07:46;;;;;;;43.45;24.23;;;4.30;99.90;;;;;;4787278;29;20051;-65
2022/01/19 09:10:13;;;;;;;43.63;24.60;;;4.30;99.90;;;;;;4787022;29;20187;-65
2022/01/19 09:12:40;;;;;;;51.63;25.48;;;4.40;99.90;;;;;;4787399;29;20051;-65
2022/01/19 09:15:07;;;;;;;50.35;26.35;;;4.30;99.90;;;;;;4786768;29;20105;-65
2022/01/19 09:17:33;;;;;;;50.83;26.50;;;4.30;99.90;;;;;;4786847;29;20051;-65
2022/01/19 09:19:59;;;;;;;45.72;26.15;;;4.50;99.90;;;;;;4787113;29;20100;-65
2022/01/19 09:22:24;;;;;;;53.08;26.35;;;4.40;99.90;;;;;;4788483;29;20075;-65
2022/01/19 09:24:50;;;;;;;54.88;28.95;;;4.40;99.90;;;;;;4786776;29;20055;-65
2022/01/19 09:27:18;;;;;;;53.00;29.48;;;4.60;99.90;;;;;;4787970;29;20155;-65
2022/01/19 09:29:45;;;;;;;52.67;27.80;;;4.40;99.90;;;;;;4787411;29;20584;-65
2022/01/19 09:32:12;;;;;;;54.40;29.95;;;4.40;99.90;;;;;;4787255;29;20100;-65
2022/01/19 09:34:40;;;;;;;54.20;28.13;;;4.50;99.90;;;;;;4787957;29;20047;-65
2022/01/19 09:37:06;;;;;;;51.15;29.60;;;4.50;99.90;;;;;;4787002;29;20535;-65
2022/01/19 09:39:32;;;;;;;57.05;28.77;;;4.50;99.90;;;;;;4786828;29;20039;-65
2022/01/19 09:41:58;;;;;;;60.33;31.52;;;4.60;99.90;;;;;;4787449;29;20089;-65
2022/01/19 09:44:26;;;;;;;56.17;27.77;;;4.60;99.90;;;;;;4786950;29;20055;-65
2022/01/19 09:46:52;;;;;;;62.78;31.52;;;4.60;99.90;;;;;;4783307;29;20051;-65
2022/01/19 09:49:19;;;;;;;54.42;29.13;;;4.60;99.90;;;;;;4772020;29;20142;-65
2022/01/19 09:51:48;;;;;;;60.95;31.05;;;4.60;99.90;;;;;;4786571;29;20516;-65
2022/01/19 09:54:19;;;;;;;57.95;30.92;;;4.60;99.90;;;;;;4784256;29;20117;-65
2022/01/19 09:56:45;;;;;;;50.60;30.17;;;4.50;99.90;;;;;;4757753;30;20043;-65
2022/01/19 09:59:15;;;;;;;57.63;31.23;;;4.60;99.90;;;;;;4785378;29;20477;-65
2022/01/19 10:02:03;;;;;;;65.93;32.58;;;4.50;99.90;;;;;;4786755;29;20512;-65
2022/01/19 10:04:41;;;;;;;63.72;31.77;;;4.60;99.90;;;;;;4786649;29;20055;-65
2022/01/19 10:07:14;;;;;;;57.78;32.08;;;4.60;99.90;;;;;;4786503;29;20051;-65
2022/01/19 10:10:07;;;;;;;65.50;33.05;;;4.60;99.90;;;;;;4785844;29;20071;-65
2022/01/19 10:18:18;;;;;;;62.55;31.63;;;4.70;99.90;;;;;;4784967;29;20566;-65
2022/01/19 10:21:03;;;;;;;58.45;31.58;;;4.70;99.90;;;;;;4785251;29;20547;-65
2022/01/19 10:23:39;;;;;;;57.25;31.98;;;4.70;99.90;;;;;;4783379;29;20118;-65
2022/01/19 10:26:10;;;;;;;61.22;30.45;;;4.70;99.90;;;;;;4785863;29;20054;-65
2022/01/19 10:29:05;;;;;;;55.42;31.70;;;4.70;99.90;;;;;;4785072;29;20058;-65
2022/01/19 10:31:33;;;;;;;51.97;30.98;;;4.80;99.90;;;;;;4786460;29;20057;-65
2022/01/19 10:34:16;;;;;;;56.63;31.88;;;4.70;99.90;;;;;;4786456;29;20047;-65
2022/01/19 10:36:51;;;;;;;63.38;33.17;;;4.70;99.90;;;;;;4783531;29;20040;-65
2022/01/19 10:39:18;;;;;;;66.15;35.40;;;4.70;99.90;;;;;;4784276;29;20062;-65
2022/01/19 10:41:58;;;;;;;66.82;35.80;;;4.70;99.90;;;;;;4786416;29;20404;-65
2022/01/19 10:44:39;;;;;;;68.72;34.90;;;4.70;99.90;;;;;;4780564;29;20396;-66
2022/01/19 10:47:05;;;;;;;73.15;35.80;;;4.70;99.90;;;;;;4784690;29;20409;-65
2022/01/19 10:49:54;;;;;;;74.00;36.90;;;4.70;99.90;;;;;;4785843;29;20446;-65
2022/01/19 10:52:30;;;;;;;69.93;38.03;;;4.70;99.90;;;;;;4783042;29;20051;-65
2022/01/19 10:54:57;;;;;;;77.43;37.92;;;4.80;99.90;;;;;;4785340;29;20141;-65
2022/01/19 10:57:24;;;;;;;73.55;38.30;;;5.00;99.90;;;;;;4784878;29;20127;-65
2022/01/19 10:59:50;;;;;;;81.25;38.17;;;4.80;99.90;;;;;;4786023;29;20149;-65
2022/01/19 11:02:17;;;;;;;69.57;35.33;;;4.80;99.90;;;;;;4770778;30;20051;-65
2022/01/19 11:04:45;;;;;;;72.32;37.10;;;4.90;99.90;;;;;;4785621;29;20047;-65
2022/01/19 11:07:19;;;;;;;67.25;34.92;;;4.80;99.90;;;;;;4785224;29;20130;-65
2022/01/19 11:09:46;;;;;;;70.03;35.88;;;4.90;99.90;;;;;;4784654;29;20143;-65
2022/01/19 11:12:19;;;;;;;71.50;36.53;;;4.80;99.90;;;;;;4786570;29;20573;-65
2022/01/19 11:14:45;;;;;;;80.05;38.45;;;4.90;99.90;;;;;;4784736;29;20126;-65
2022/01/19 11:17:11;;;;;;;74.57;37.22;;;4.80;99.90;;;;;;4785438;29;20139;-65
2022/01/19 11:19:38;;;;;;;82.18;41.80;;;4.80;99.90;;;;;;4785853;29;20073;-65
2022/01/19 11:22:23;;;;;;;76.40;38.85;;;4.80;99.90;;;;;;4785699;29;20050;-65
2022/01/19 11:25:13;;;;;;;86.80;41.00;;;4.80;99.90;;;;;;4763822;29;20047;-65
2022/01/19 11:27:41;;;;;;;76.85;39.33;;;4.80;99.90;;;;;;4785450;29;20104;-65
2022/01/19 11:30:20;;;;;;;90.38;42.67;;;4.80;99.90;;;;;;4786861;29;20138;-65
2022/01/19 11:33:12;;;;;;;80.97;39.53;;;4.80;99.90;;;;;;4785600;29;20519;-65
2022/01/19 11:35:38;;;;;;;77.22;38.75;;;4.80;99.90;;;;;;4793580;29;20062;-65
2022/01/19 11:38:34;;;;;;;79.57;42.30;;;5.00;99.90;;;;;;4784772;29;20043;-65
2022/01/19 11:41:03;;;;;;;79.22;41.38;;;4.80;99.90;;;;;;4785002;29;20481;-65
2022/01/19 11:43:30;;;;;;;86.93;40.38;;;4.80;99.90;;;;;;4784574;29;20146;-65
2022/01/19 11:45:57;;;;;;;79.30;40.55;;;4.90;99.90;;;;;;4785049;29;20059;-65
2022/01/19 11:48:31;;;;;;;79.63;40.45;;;4.90;99.90;;;;;;4786073;29;20051;-65
2022/01/19 11:51:22;;;;;;;79.50;42.53;;;5.10;99.90;;;;;;4788658;29;20051;-65
2022/01/19 11:54:11;;;;;;;81.70;40.13;;;5.00;99.90;;;;;;4788228;29;20408;-66
2022/01/19 11:57:11;;;;;;;78.20;40.15;;;5.10;99.90;;;;;;4778821;29;20456;-65
2022/01/19 11:59:46;;;;;;;70.65;38.80;;;5.10;99.90;;;;;;4789721;29;20047;-65
2022/01/19 12:02:21;;;;;;;74.82;37.75;;;5.10;99.90;;;;;;4802827;29;20059;-65
2022/01/19 12:04:58;;;;;;;79.07;41.22;;;5.00;99.90;;;;;;4785592;29;20066;-65
2022/01/19 12:07:41;;;;;;;79.28;40.60;;;5.10;99.90;;;;;;4787689;29;20051;-65
2022/01/19 12:10:09;;;;;;;74.95;39.97;;;5.10;99.90;;;;;;4803193;29;20116;-65
2022/01/19 12:12:43;;;;;;;75.78;41.30;;;5.10;99.90;;;;;;4787978;29;20069;-65
2022/01/19 12:15:55;;;;;;;81.53;42.05;;;5.10;99.90;;;;;;4789063;29;20458;-65
2022/01/19 12:18:37;;;;;;;70.68;38.17;;;5.20;99.90;;;;;;4787496;29;20079;-65
2022/01/19 12:21:03;;;;;;;81.90;42.03;;;5.10;99.90;;;;;;4799965;29;20051;-65
2022/01/19 12:23:35;;;;;;;79.50;40.08;;;5.00;99.90;;;;;;4788073;29;20043;-66
2022/01/19 12:26:02;;;;;;;76.80;39.60;;;5.00;99.90;;;;;;4787706;29;20047;-65
2022/01/19 12:28:54;;;;;;;85.53;42.03;;;5.10;99.90;;;;;;4789139;29;20047;-65
2022/01/19 12:31:25;;;;;;;77.05;40.28;;;5.10;99.90;;;;;;4784598;30;20389;-65
2022/01/19 12:34:07;;;;;;;78.70;41.38;;;5.10;99.90;;;;;;4787825;29;20055;-65
2022/01/19 12:37:00;;;;;;;80.13;40.30;;;5.10;99.90;;;;;;4799679;29;20456;-65
2022/01/19 12:39:25;;;;;;;73.85;38.40;;;5.10;99.90;;;;;;4788233;29;20079;-65
2022/01/19 12:41:59;;;;;;;69.78;38.17;;;5.10;99.90;;;;;;4787505;29;20085;-65
2022/01/19 12:44:34;;;;;;;77.10;39.88;;;5.00;99.90;;;;;;4787636;29;20054;-65
2022/01/19 12:47:05;;;;;;;70.03;38.17;;;5.10;99.90;;;;;;4788174;29;20043;-65
2022/01/19 12:49:32;;;;;;;64.68;36.50;;;5.10;99.90;;;;;;4784889;29;20457;-65
2022/01/19 12:52:00;;;;;;;80.60;41.40;;;5.00;99.90;;;;;;4786500;29;20125;-65
2022/01/19 12:54:28;;;;;;;73.57;37.20;;;5.10;99.90;;;;;;4788978;29;20078;-65
2022/01/19 12:57:02;;;;;;;66.88;37.25;;;5.30;99.90;;;;;;4789011;29;20054;-65
2022/01/19 12:59:31;;;;;;;70.78;37.20;;;5.10;99.90;;;;;;4788331;29;20057;-65
2022/01/19 13:01:59;;;;;;;73.05;37.78;;;5.00;99.90;;;;;;4787185;29;20059;-65
2022/01/19 13:04:31;;;;;;;72.55;38.58;;;5.10;99.90;;;;;;4786896;29;20055;-65
2022/01/19 13:07:21;;;;;;;70.35;38.28;;;5.10;99.90;;;;;;4787271;29;20086;-65
2022/01/19 13:10:27;;;;;;;60.88;36.13;;;5.10;99.90;;;;;;4786869;29;20063;-65
2022/01/19 13:13:08;;;;;;;69.78;36.92;;;5.20;99.90;;;;;;4787223;29;20043;-65
2022/01/19 13:15:42;;;;;;;69.15;37.70;;;5.20;99.90;;;;;;4783315;29;20624;-65
2022/01/19 13:18:09;;;;;;;63.28;35.53;;;5.30;99.90;;;;;;4787630;29;20035;-65
2022/01/19 13:20:35;;;;;;;65.75;34.90;;;5.20;99.90;;;;;;4787281;29;20039;-65
2022/01/19 13:23:04;;;;;;;58.80;34.30;;;5.30;99.90;;;;;;4787321;29;20050;-65
2022/01/19 13:25:32;;;;;;;64.25;32.85;;;5.30;99.90;;;;;;4788071;29;20434;-65
2022/01/19 13:28:00;;;;;;;63.35;35.05;;;5.30;99.90;;;;;;4786292;29;20043;-66
2022/01/19 13:30:28;;;;;;;63.53;35.25;;;5.30;99.90;;;;;;4786716;29;20122;-66
2022/01/19 13:32:55;;;;;;;59.90;33.50;;;5.40;99.90;;;;;;4787127;29;20400;-65
2022/01/19 13:35:22;;;;;;;60.80;33.47;;;5.50;99.90;;;;;;4786626;29;20051;-65
2022/01/19 13:37:54;;;;;;;60.33;34.15;;;5.40;99.90;;;;;;4786816;29;20110;-65
2022/01/19 13:40:23;;;;;;;55.20;33.72;;;5.40;99.90;;;;;;4786392;29;20146;-65
2022/01/19 13:42:56;;;;;;;61.67;33.10;;;5.50;99.90;;;;;;4787370;29;20129;-65
2022/01/19 13:45:35;;;;;;;63.70;33.42;;;5.50;99.90;;;;;;4786685;29;20062;-65
2022/01/19 13:48:28;;;;;;;62.97;35.85;;;5.40;99.90;;;;;;4786184;29;20043;-65
2022/01/19 13:50:58;;;;;;;61.55;33.28;;;5.40;99.90;;;;;;4785980;29;20055;-65
2022/01/19 13:53:27;;;;;;;57.40;32.67;;;5.40;99.90;;;;;;4787658;29;20054;-65
2022/01/19 13:55:57;;;;;;;61.78;34.03;;;5.40;99.90;;;;;;4786209;29;20055;-65
2022/01/19 13:58:34;;;;;;;55.22;33.55;;;5.40;99.90;;;;;;4785508;29;20051;-65
2022/01/19 14:01:04;;;;;;;60.83;33.35;;;5.40;99.90;;;;;;4786029;29;20047;-65
2022/01/19 14:03:50;;;;;;;58.22;33.95;;;5.40;99.90;;;;;;4771575;29;20059;-65
2022/01/19 14:06:32;;;;;;;66.65;33.60;;;5.50;99.90;;;;;;4784660;29;20447;-65
2022/01/19 14:09:27;;;;;;;59.85;33.53;;;5.40;99.90;;;;;;4786300;29;20055;-65
2022/01/19 14:12:00;;;;;;;57.15;32.22;;;6.20;99.90;;;;;;4781838;29;20070;-65
2022/01/19 14:14:35;;;;;;;60.25;33.78;;;5.50;99.90;;;;;;4785830;29;20134;-65
2022/01/19 14:17:01;;;;;;;59.22;32.05;;;5.50;99.90;;;;;;4786211;29;20481;-65
2022/01/19 14:19:29;;;;;;;62.20;34.33;;;5.50;99.90;;;;;;4786795;29;20051;-65
2022/01/19 14:22:15;;;;;;;60.80;33.47;;;5.50;99.90;;;;;;4785789;29;20059;-65
2022/01/19 14:24:40;;;;;;;62.85;33.67;;;5.60;99.90;;;;;;4782015;29;20055;-65
2022/01/19 14:27:09;;;;;;;58.20;33.00;;;5.50;99.90;;;;;;4785295;29;20066;-65
2022/01/19 14:29:35;;;;;;;55.22;30.60;;;5.50;99.90;;;;;;4785993;29;20108;-65
2022/01/19 14:32:01;;;;;;;63.88;32.67;;;5.40;99.90;;;;;;4782310;29;20051;-65